sensor_id;sensor_type;location;lat;lon;timestamp;P1;durP1;ratioP1;P2;durP2;ratioP2
17935;SDS011;9093;52.062;4.508;2023-07-20T00:01:34;4.85;;;1.65;;
17935;SDS011;9093;52.062;4.508;2023-07-20T00:04:14;2.63;;;1.63;;
17935;SDS011;9093;52.062;4.508;2023-07-20T00:06:55;2.92;;;1.70;;
17935;SDS011;9093;52.062;4.508;2023-07-20T00:09:35;2.88;;;1.73;;
17935;SDS011;9093;52.062;4.508;2023-07-20T00:12:15;4.95;;;1.58;;
17935;SDS011;9093;52.062;4.508;2023-07-20T00:14:56;2.17;;;1.25;;
17935;SDS011;9093;52.062;4.508;2023-07-20T00:17:36;2.78;;;1.52;;
17935;SDS011;9093;52.062;4.508;2023-07-20T00:20:17;4.00;;;1.13;;
17935;SDS011;9093;52.062;4.508;2023-07-20T00:22:57;2.13;;;1.23;;
17935;SDS011;9093;52.062;4.508;2023-07-20T00:25:38;2.42;;;1.40;;
17935;SDS011;9093;52.062;4.508;2023-07-20T00:28:18;1.10;;;0.88;;
17935;SDS011;9093;52.062;4.508;2023-07-20T00:30:59;2.13;;;1.02;;
17935;SDS011;9093;52.062;4.508;2023-07-20T00:33:40;1.02;;;0.82;;
17935;SDS011;9093;52.062;4.508;2023-07-20T00:36:20;1.40;;;0.85;;
17935;SDS011;9093;52.062;4.508;2023-07-20T00:39:00;0.90;;;0.65;;
17935;SDS011;9093;52.062;4.508;2023-07-20T00:41:41;0.95;;;0.55;;
17935;SDS011;9093;52.062;4.508;2023-07-20T00:44:21;1.42;;;0.70;;
17935;SDS011;9093;52.062;4.508;2023-07-20T00:47:01;0.68;;;0.60;;
17935;SDS011;9093;52.062;4.508;2023-07-20T00:49:42;2.83;;;0.70;;
17935;SDS011;9093;52.062;4.508;2023-07-20T00:52:23;0.70;;;0.50;;
17935;SDS011;9093;52.062;4.508;2023-07-20T00:55:06;0.80;;;0.70;;
17935;SDS011;9093;52.062;4.508;2023-07-20T00:57:47;1.05;;;0.70;;
17935;SDS011;9093;52.062;4.508;2023-07-20T01:00:28;1.10;;;0.80;;
17935;SDS011;9093;52.062;4.508;2023-07-20T01:03:08;0.90;;;0.75;;
17935;SDS011;9093;52.062;4.508;2023-07-20T01:05:51;3.92;;;0.50;;
17935;SDS011;9093;52.062;4.508;2023-07-20T01:08:37;0.70;;;0.60;;
17935;SDS011;9093;52.062;4.508;2023-07-20T01:11:31;0.85;;;0.57;;
17935;SDS011;9093;52.062;4.508;2023-07-20T01:14:18;1.03;;;0.70;;
17935;SDS011;9093;52.062;4.508;2023-07-20T01:16:58;0.75;;;0.60;;
17935;SDS011;9093;52.062;4.508;2023-07-20T01:19:38;1.23;;;0.80;;
17935;SDS011;9093;52.062;4.508;2023-07-20T01:22:42;0.90;;;0.60;;
17935;SDS011;9093;52.062;4.508;2023-07-20T01:31:38;0.90;;;0.65;;
17935;SDS011;9093;52.062;4.508;2023-07-20T01:34:19;0.85;;;0.70;;
17935;SDS011;9093;52.062;4.508;2023-07-20T01:37:02;1.02;;;0.77;;
17935;SDS011;9093;52.062;4.508;2023-07-20T01:39:43;0.90;;;0.68;;
17935;SDS011;9093;52.062;4.508;2023-07-20T01:42:24;1.33;;;0.80;;
17935;SDS011;9093;52.062;4.508;2023-07-20T01:45:04;1.02;;;0.70;;
17935;SDS011;9093;52.062;4.508;2023-07-20T01:47:45;1.27;;;0.80;;
17935;SDS011;9093;52.062;4.508;2023-07-20T01:50:25;1.10;;;0.65;;
17935;SDS011;9093;52.062;4.508;2023-07-20T01:53:06;1.73;;;0.60;;
17935;SDS011;9093;52.062;4.508;2023-07-20T01:55:46;1.25;;;0.88;;
17935;SDS011;9093;52.062;4.508;2023-07-20T01:58:26;1.03;;;0.73;;
17935;SDS011;9093;52.062;4.508;2023-07-20T02:01:07;1.00;;;0.80;;
17935;SDS011;9093;52.062;4.508;2023-07-20T02:03:47;1.65;;;0.90;;
17935;SDS011;9093;52.062;4.508;2023-07-20T02:06:27;2.10;;;0.88;;
17935;SDS011;9093;52.062;4.508;2023-07-20T02:09:07;3.45;;;1.08;;
17935;SDS011;9093;52.062;4.508;2023-07-20T02:11:48;0.95;;;0.80;;
17935;SDS011;9093;52.062;4.508;2023-07-20T02:14:28;1.05;;;0.95;;
17935;SDS011;9093;52.062;4.508;2023-07-20T02:17:08;1.40;;;0.70;;
17935;SDS011;9093;52.062;4.508;2023-07-20T02:19:52;1.25;;;0.95;;
17935;SDS011;9093;52.062;4.508;2023-07-20T02:22:32;1.40;;;0.75;;
17935;SDS011;9093;52.062;4.508;2023-07-20T02:25:12;0.90;;;0.70;;
17935;SDS011;9093;52.062;4.508;2023-07-20T02:27:53;1.08;;;0.70;;
17935;SDS011;9093;52.062;4.508;2023-07-20T02:30:33;3.53;;;0.90;;
17935;SDS011;9093;52.062;4.508;2023-07-20T02:33:14;2.13;;;0.90;;
17935;SDS011;9093;52.062;4.508;2023-07-20T02:35:54;1.10;;;0.80;;
17935;SDS011;9093;52.062;4.508;2023-07-20T02:38:35;1.05;;;0.90;;
17935;SDS011;9093;52.062;4.508;2023-07-20T02:41:15;2.13;;;1.08;;
17935;SDS011;9093;52.062;4.508;2023-07-20T02:43:56;1.65;;;0.82;;
17935;SDS011;9093;52.062;4.508;2023-07-20T02:46:36;1.48;;;1.10;;
17935;SDS011;9093;52.062;4.508;2023-07-20T02:49:17;2.38;;;1.15;;
17935;SDS011;9093;52.062;4.508;2023-07-20T02:51:57;0.82;;;0.75;;
17935;SDS011;9093;52.062;4.508;2023-07-20T02:54:37;1.58;;;0.95;;
17935;SDS011;9093;52.062;4.508;2023-07-20T02:57:18;2.25;;;0.80;;
17935;SDS011;9093;52.062;4.508;2023-07-20T02:59:58;1.63;;;1.13;;
17935;SDS011;9093;52.062;4.508;2023-07-20T03:02:38;1.17;;;0.77;;
17935;SDS011;9093;52.062;4.508;2023-07-20T03:05:18;1.10;;;0.70;;
17935;SDS011;9093;52.062;4.508;2023-07-20T03:07:59;1.02;;;0.70;;
17935;SDS011;9093;52.062;4.508;2023-07-20T03:10:42;1.63;;;0.88;;
17935;SDS011;9093;52.062;4.508;2023-07-20T03:13:22;1.00;;;0.80;;
17935;SDS011;9093;52.062;4.508;2023-07-20T03:16:04;4.82;;;1.15;;
17935;SDS011;9093;52.062;4.508;2023-07-20T03:18:44;0.98;;;0.73;;
17935;SDS011;9093;52.062;4.508;2023-07-20T03:21:25;1.08;;;0.68;;
17935;SDS011;9093;52.062;4.508;2023-07-20T03:24:05;1.52;;;0.70;;
17935;SDS011;9093;52.062;4.508;2023-07-20T03:26:45;1.95;;;0.80;;
17935;SDS011;9093;52.062;4.508;2023-07-20T03:29:26;0.65;;;0.57;;
17935;SDS011;9093;52.062;4.508;2023-07-20T03:32:06;3.33;;;0.85;;
17935;SDS011;9093;52.062;4.508;2023-07-20T03:34:47;3.75;;;0.80;;
17935;SDS011;9093;52.062;4.508;2023-07-20T03:37:27;0.93;;;0.60;;
17935;SDS011;9093;52.062;4.508;2023-07-20T03:40:10;1.13;;;0.75;;
17935;SDS011;9093;52.062;4.508;2023-07-20T03:42:51;1.35;;;0.90;;
17935;SDS011;9093;52.062;4.508;2023-07-20T03:45:31;1.10;;;0.77;;
17935;SDS011;9093;52.062;4.508;2023-07-20T03:48:11;0.95;;;0.60;;
17935;SDS011;9093;52.062;4.508;2023-07-20T03:50:52;1.05;;;0.80;;
17935;SDS011;9093;52.062;4.508;2023-07-20T03:53:34;0.98;;;0.80;;
17935;SDS011;9093;52.062;4.508;2023-07-20T03:56:14;2.53;;;0.95;;
17935;SDS011;9093;52.062;4.508;2023-07-20T03:58:54;1.75;;;0.88;;
17935;SDS011;9093;52.062;4.508;2023-07-20T04:01:35;1.02;;;0.70;;
17935;SDS011;9093;52.062;4.508;2023-07-20T04:04:16;1.40;;;0.77;;
17935;SDS011;9093;52.062;4.508;2023-07-20T04:06:57;0.98;;;0.73;;
17935;SDS011;9093;52.062;4.508;2023-07-20T04:09:37;1.02;;;0.80;;
17935;SDS011;9093;52.062;4.508;2023-07-20T04:12:17;1.67;;;0.98;;
17935;SDS011;9093;52.062;4.508;2023-07-20T04:14:58;2.13;;;1.10;;
17935;SDS011;9093;52.062;4.508;2023-07-20T04:17:38;2.90;;;0.98;;
17935;SDS011;9093;52.062;4.508;2023-07-20T04:20:19;2.60;;;0.70;;
17935;SDS011;9093;52.062;4.508;2023-07-20T04:22:59;1.73;;;0.90;;
17935;SDS011;9093;52.062;4.508;2023-07-20T04:25:40;1.65;;;1.00;;
17935;SDS011;9093;52.062;4.508;2023-07-20T04:28:20;1.45;;;0.80;;
17935;SDS011;9093;52.062;4.508;2023-07-20T04:31:10;1.23;;;0.88;;
17935;SDS011;9093;52.062;4.508;2023-07-20T04:36:34;1.27;;;0.87;;
17935;SDS011;9093;52.062;4.508;2023-07-20T04:39:14;3.13;;;1.10;;
17935;SDS011;9093;52.062;4.508;2023-07-20T04:41:55;1.85;;;1.02;;
17935;SDS011;9093;52.062;4.508;2023-07-20T04:44:35;3.65;;;1.38;;
17935;SDS011;9093;52.062;4.508;2023-07-20T04:47:15;2.55;;;1.23;;
17935;SDS011;9093;52.062;4.508;2023-07-20T04:49:55;1.85;;;1.15;;
17935;SDS011;9093;52.062;4.508;2023-07-20T04:52:36;4.40;;;1.08;;
17935;SDS011;9093;52.062;4.508;2023-07-20T04:55:16;1.98;;;1.17;;
17935;SDS011;9093;52.062;4.508;2023-07-20T04:57:56;2.95;;;1.33;;
17935;SDS011;9093;52.062;4.508;2023-07-20T05:00:37;3.20;;;1.58;;
17935;SDS011;9093;52.062;4.508;2023-07-20T05:03:18;2.05;;;1.40;;
17935;SDS011;9093;52.062;4.508;2023-07-20T05:05:58;1.83;;;1.15;;
17935;SDS011;9093;52.062;4.508;2023-07-20T05:08:38;2.47;;;1.45;;
17935;SDS011;9093;52.062;4.508;2023-07-20T05:11:19;8.88;;;1.58;;
17935;SDS011;9093;52.062;4.508;2023-07-20T05:14:00;1.27;;;1.08;;
17935;SDS011;9093;52.062;4.508;2023-07-20T05:16:40;1.60;;;1.23;;
17935;SDS011;9093;52.062;4.508;2023-07-20T05:19:21;1.75;;;1.17;;
17935;SDS011;9093;52.062;4.508;2023-07-20T05:22:01;1.70;;;1.27;;
17935;SDS011;9093;52.062;4.508;2023-07-20T05:24:41;2.42;;;1.50;;
17935;SDS011;9093;52.062;4.508;2023-07-20T05:27:21;1.90;;;1.40;;
17935;SDS011;9093;52.062;4.508;2023-07-20T05:30:02;1.70;;;1.15;;
17935;SDS011;9093;52.062;4.508;2023-07-20T05:32:44;3.33;;;1.50;;
17935;SDS011;9093;52.062;4.508;2023-07-20T05:35:31;3.47;;;1.55;;
17935;SDS011;9093;52.062;4.508;2023-07-20T05:38:11;2.92;;;1.30;;
17935;SDS011;9093;52.062;4.508;2023-07-20T05:40:51;2.13;;;1.52;;
17935;SDS011;9093;52.062;4.508;2023-07-20T05:43:32;2.10;;;1.27;;
17935;SDS011;9093;52.062;4.508;2023-07-20T05:46:12;1.83;;;1.10;;
17935;SDS011;9093;52.062;4.508;2023-07-20T05:48:52;2.65;;;1.45;;
17935;SDS011;9093;52.062;4.508;2023-07-20T05:51:32;1.60;;;1.30;;
17935;SDS011;9093;52.062;4.508;2023-07-20T05:54:13;2.92;;;1.63;;
17935;SDS011;9093;52.062;4.508;2023-07-20T05:56:53;1.83;;;1.20;;
17935;SDS011;9093;52.062;4.508;2023-07-20T05:59:34;1.23;;;0.93;;
17935;SDS011;9093;52.062;4.508;2023-07-20T06:02:14;2.53;;;1.30;;
17935;SDS011;9093;52.062;4.508;2023-07-20T06:04:55;1.52;;;1.00;;
17935;SDS011;9093;52.062;4.508;2023-07-20T06:07:38;1.70;;;1.08;;
17935;SDS011;9093;52.062;4.508;2023-07-20T06:10:18;1.50;;;1.10;;
17935;SDS011;9093;52.062;4.508;2023-07-20T06:12:58;2.05;;;0.75;;
17935;SDS011;9093;52.062;4.508;2023-07-20T06:15:39;1.48;;;0.88;;
17935;SDS011;9093;52.062;4.508;2023-07-20T06:18:22;2.30;;;1.00;;
17935;SDS011;9093;52.062;4.508;2023-07-20T06:21:05;1.30;;;0.82;;
17935;SDS011;9093;52.062;4.508;2023-07-20T06:23:46;1.30;;;0.98;;
17935;SDS011;9093;52.062;4.508;2023-07-20T06:26:26;0.90;;;0.77;;
17935;SDS011;9093;52.062;4.508;2023-07-20T06:29:06;1.25;;;0.90;;
17935;SDS011;9093;52.062;4.508;2023-07-20T06:31:47;1.52;;;0.50;;
17935;SDS011;9093;52.062;4.508;2023-07-20T06:34:27;1.00;;;0.80;;
17935;SDS011;9093;52.062;4.508;2023-07-20T06:37:07;0.57;;;0.50;;
17935;SDS011;9093;52.062;4.508;2023-07-20T06:39:48;2.20;;;0.73;;
17935;SDS011;9093;52.062;4.508;2023-07-20T06:42:28;3.47;;;0.77;;
17935;SDS011;9093;52.062;4.508;2023-07-20T06:45:08;1.63;;;1.20;;
17935;SDS011;9093;52.062;4.508;2023-07-20T06:47:49;1.58;;;0.73;;
17935;SDS011;9093;52.062;4.508;2023-07-20T06:50:29;1.27;;;0.65;;
17935;SDS011;9093;52.062;4.508;2023-07-20T06:53:10;0.90;;;0.70;;
17935;SDS011;9093;52.062;4.508;2023-07-20T06:55:50;3.25;;;0.77;;
17935;SDS011;9093;52.062;4.508;2023-07-20T06:58:31;1.55;;;0.90;;
17935;SDS011;9093;52.062;4.508;2023-07-20T07:01:11;1.00;;;0.88;;
17935;SDS011;9093;52.062;4.508;2023-07-20T07:03:51;5.90;;;0.88;;
17935;SDS011;9093;52.062;4.508;2023-07-20T07:06:31;1.33;;;0.80;;
17935;SDS011;9093;52.062;4.508;2023-07-20T07:09:12;1.15;;;0.90;;
17935;SDS011;9093;52.062;4.508;2023-07-20T07:11:53;1.95;;;0.90;;
17935;SDS011;9093;52.062;4.508;2023-07-20T07:14:33;1.63;;;0.93;;
17935;SDS011;9093;52.062;4.508;2023-07-20T07:17:14;0.90;;;0.70;;
17935;SDS011;9093;52.062;4.508;2023-07-20T07:19:54;1.30;;;0.90;;
17935;SDS011;9093;52.062;4.508;2023-07-20T07:22:36;1.48;;;0.90;;
17935;SDS011;9093;52.062;4.508;2023-07-20T07:25:16;0.82;;;0.80;;
17935;SDS011;9093;52.062;4.508;2023-07-20T07:27:56;1.80;;;0.90;;
17935;SDS011;9093;52.062;4.508;2023-07-20T07:30:37;2.65;;;1.38;;
17935;SDS011;9093;52.062;4.508;2023-07-20T07:33:18;1.67;;;0.90;;
17935;SDS011;9093;52.062;4.508;2023-07-20T07:35:59;2.30;;;0.80;;
17935;SDS011;9093;52.062;4.508;2023-07-20T07:38:39;3.88;;;1.00;;
17935;SDS011;9093;52.062;4.508;2023-07-20T07:41:19;2.38;;;1.00;;
17935;SDS011;9093;52.062;4.508;2023-07-20T07:44:00;1.25;;;0.82;;
17935;SDS011;9093;52.062;4.508;2023-07-20T07:46:41;1.05;;;0.95;;
17935;SDS011;9093;52.062;4.508;2023-07-20T07:49:21;3.20;;;1.08;;
17935;SDS011;9093;52.062;4.508;2023-07-20T07:52:02;3.78;;;1.00;;
17935;SDS011;9093;52.062;4.508;2023-07-20T07:54:42;1.40;;;0.85;;
17935;SDS011;9093;52.062;4.508;2023-07-20T07:57:23;2.08;;;1.00;;
17935;SDS011;9093;52.062;4.508;2023-07-20T08:00:03;2.08;;;1.10;;
17935;SDS011;9093;52.062;4.508;2023-07-20T08:02:45;2.75;;;1.00;;
17935;SDS011;9093;52.062;4.508;2023-07-20T08:05:28;1.45;;;1.00;;
17935;SDS011;9093;52.062;4.508;2023-07-20T08:08:08;1.50;;;0.90;;
17935;SDS011;9093;52.062;4.508;2023-07-20T08:10:48;3.92;;;1.27;;
17935;SDS011;9093;52.062;4.508;2023-07-20T08:13:29;4.75;;;1.23;;
17935;SDS011;9093;52.062;4.508;2023-07-20T08:16:09;1.05;;;0.95;;
17935;SDS011;9093;52.062;4.508;2023-07-20T08:18:49;1.45;;;0.93;;
17935;SDS011;9093;52.062;4.508;2023-07-20T08:21:30;2.38;;;0.80;;
17935;SDS011;9093;52.062;4.508;2023-07-20T08:24:10;0.60;;;0.60;;
17935;SDS011;9093;52.062;4.508;2023-07-20T08:26:51;1.50;;;0.80;;
17935;SDS011;9093;52.062;4.508;2023-07-20T08:29:31;1.33;;;0.70;;
17935;SDS011;9093;52.062;4.508;2023-07-20T08:32:12;0.90;;;0.70;;
17935;SDS011;9093;52.062;4.508;2023-07-20T08:34:54;1.05;;;0.75;;
17935;SDS011;9093;52.062;4.508;2023-07-20T08:37:34;0.65;;;0.50;;
17935;SDS011;9093;52.062;4.508;2023-07-20T08:40:15;0.60;;;0.50;;
17935;SDS011;9093;52.062;4.508;2023-07-20T08:42:55;1.00;;;0.63;;
17935;SDS011;9093;52.062;4.508;2023-07-20T08:45:41;1.27;;;0.90;;
17935;SDS011;9093;52.062;4.508;2023-07-20T08:48:21;0.95;;;0.80;;
17935;SDS011;9093;52.062;4.508;2023-07-20T08:51:02;3.80;;;0.60;;
17935;SDS011;9093;52.062;4.508;2023-07-20T08:53:45;0.93;;;0.47;;
17935;SDS011;9093;52.062;4.508;2023-07-20T08:56:25;1.65;;;0.80;;
17935;SDS011;9093;52.062;4.508;2023-07-20T08:59:08;0.80;;;0.60;;
17935;SDS011;9093;52.062;4.508;2023-07-20T09:01:48;0.95;;;0.70;;
17935;SDS011;9093;52.062;4.508;2023-07-20T09:04:29;1.33;;;0.80;;
17935;SDS011;9093;52.062;4.508;2023-07-20T09:07:10;0.80;;;0.60;;
17935;SDS011;9093;52.062;4.508;2023-07-20T09:09:51;0.65;;;0.60;;
17935;SDS011;9093;52.062;4.508;2023-07-20T09:12:32;1.07;;;0.77;;
17935;SDS011;9093;52.062;4.508;2023-07-20T09:15:15;0.85;;;0.60;;
17935;SDS011;9093;52.062;4.508;2023-07-20T09:17:56;2.90;;;0.80;;
17935;SDS011;9093;52.062;4.508;2023-07-20T09:20:40;1.58;;;0.60;;
17935;SDS011;9093;52.062;4.508;2023-07-20T09:23:28;1.05;;;0.50;;
17935;SDS011;9093;52.062;4.508;2023-07-20T09:26:11;1.90;;;0.70;;
17935;SDS011;9093;52.062;4.508;2023-07-20T09:28:53;0.65;;;0.50;;
17935;SDS011;9093;52.062;4.508;2023-07-20T09:31:35;1.00;;;0.70;;
17935;SDS011;9093;52.062;4.508;2023-07-20T09:34:17;4.10;;;0.70;;
17935;SDS011;9093;52.062;4.508;2023-07-20T09:37:00;0.80;;;0.55;;
17935;SDS011;9093;52.062;4.508;2023-07-20T09:39:44;1.85;;;0.70;;
17935;SDS011;9093;52.062;4.508;2023-07-20T09:42:25;1.52;;;0.98;;
17935;SDS011;9093;52.062;4.508;2023-07-20T09:45:07;0.70;;;0.60;;
17935;SDS011;9093;52.062;4.508;2023-07-20T09:47:48;1.83;;;0.60;;
17935;SDS011;9093;52.062;4.508;2023-07-20T09:50:28;2.35;;;0.70;;
17935;SDS011;9093;52.062;4.508;2023-07-20T09:53:11;0.68;;;0.40;;
17935;SDS011;9093;52.062;4.508;2023-07-20T09:55:53;0.50;;;0.40;;
17935;SDS011;9093;52.062;4.508;2023-07-20T09:58:34;1.02;;;0.80;;
17935;SDS011;9093;52.062;4.508;2023-07-20T10:01:17;0.73;;;0.57;;
17935;SDS011;9093;52.062;4.508;2023-07-20T10:04:01;1.20;;;0.60;;
17935;SDS011;9093;52.062;4.508;2023-07-20T10:06:44;0.88;;;0.70;;
17935;SDS011;9093;52.062;4.508;2023-07-20T10:09:29;0.63;;;0.52;;
17935;SDS011;9093;52.062;4.508;2023-07-20T10:12:10;1.08;;;0.60;;
17935;SDS011;9093;52.062;4.508;2023-07-20T10:15:04;0.80;;;0.60;;
17935;SDS011;9093;52.062;4.508;2023-07-20T10:20:49;0.50;;;0.40;;
17935;SDS011;9093;52.062;4.508;2023-07-20T10:23:34;0.80;;;0.50;;
17935;SDS011;9093;52.062;4.508;2023-07-20T10:26:14;0.85;;;0.50;;
17935;SDS011;9093;52.062;4.508;2023-07-20T10:28:55;4.07;;;0.60;;
17935;SDS011;9093;52.062;4.508;2023-07-20T10:31:37;0.80;;;0.60;;
17935;SDS011;9093;52.062;4.508;2023-07-20T10:34:17;0.60;;;0.50;;
17935;SDS011;9093;52.062;4.508;2023-07-20T10:36:58;1.40;;;1.02;;
17935;SDS011;9093;52.062;4.508;2023-07-20T10:39:39;0.70;;;0.50;;
17935;SDS011;9093;52.062;4.508;2023-07-20T10:42:20;1.00;;;0.65;;
17935;SDS011;9093;52.062;4.508;2023-07-20T10:45:00;1.40;;;0.70;;
17935;SDS011;9093;52.062;4.508;2023-07-20T10:47:47;1.08;;;0.50;;
17935;SDS011;9093;52.062;4.508;2023-07-20T10:50:27;6.78;;;0.75;;
17935;SDS011;9093;52.062;4.508;2023-07-20T10:53:18;1.85;;;0.68;;
17935;SDS011;9093;52.062;4.508;2023-07-20T10:56:05;0.60;;;0.50;;
17935;SDS011;9093;52.062;4.508;2023-07-20T10:58:57;0.75;;;0.50;;
17935;SDS011;9093;52.062;4.508;2023-07-20T11:01:38;0.80;;;0.60;;
17935;SDS011;9093;52.062;4.508;2023-07-20T11:04:42;1.35;;;0.57;;
17935;SDS011;9093;52.062;4.508;2023-07-20T11:07:36;2.90;;;0.65;;
17935;SDS011;9093;52.062;4.508;2023-07-20T11:10:18;1.05;;;0.50;;
17935;SDS011;9093;52.062;4.508;2023-07-20T11:13:18;1.40;;;0.47;;
17935;SDS011;9093;52.062;4.508;2023-07-20T11:18:40;1.07;;;0.60;;
17935;SDS011;9093;52.062;4.508;2023-07-20T11:21:20;1.48;;;0.80;;
17935;SDS011;9093;52.062;4.508;2023-07-20T11:24:02;1.00;;;0.70;;
17935;SDS011;9093;52.062;4.508;2023-07-20T11:26:44;1.67;;;0.70;;
17935;SDS011;9093;52.062;4.508;2023-07-20T11:29:31;0.70;;;0.60;;
17935;SDS011;9093;52.062;4.508;2023-07-20T11:32:11;6.63;;;0.70;;
17935;SDS011;9093;52.062;4.508;2023-07-20T11:34:52;1.73;;;0.73;;
17935;SDS011;9093;52.062;4.508;2023-07-20T11:37:32;2.20;;;0.75;;
17935;SDS011;9093;52.062;4.508;2023-07-20T11:40:13;1.23;;;0.80;;
17935;SDS011;9093;52.062;4.508;2023-07-20T11:42:54;1.08;;;0.70;;
17935;SDS011;9093;52.062;4.508;2023-07-20T11:45:35;0.95;;;0.60;;
17935;SDS011;9093;52.062;4.508;2023-07-20T11:48:15;1.10;;;0.57;;
17935;SDS011;9093;52.062;4.508;2023-07-20T11:50:56;0.95;;;0.80;;
17935;SDS011;9093;52.062;4.508;2023-07-20T11:53:36;1.23;;;0.60;;
17935;SDS011;9093;52.062;4.508;2023-07-20T11:56:17;0.70;;;0.52;;
17935;SDS011;9093;52.062;4.508;2023-07-20T11:58:57;0.82;;;0.60;;
17935;SDS011;9093;52.062;4.508;2023-07-20T12:01:42;1.13;;;0.63;;
17935;SDS011;9093;52.062;4.508;2023-07-20T12:04:23;1.55;;;0.60;;
17935;SDS011;9093;52.062;4.508;2023-07-20T12:07:03;1.70;;;0.90;;
17935;SDS011;9093;52.062;4.508;2023-07-20T12:12:49;0.50;;;0.40;;
17935;SDS011;9093;52.062;4.508;2023-07-20T12:15:30;0.93;;;0.55;;
17935;SDS011;9093;52.062;4.508;2023-07-20T12:18:11;1.05;;;0.70;;
17935;SDS011;9093;52.062;4.508;2023-07-20T12:20:58;1.33;;;0.75;;
17935;SDS011;9093;52.062;4.508;2023-07-20T12:23:40;0.95;;;0.50;;
17935;SDS011;9093;52.062;4.508;2023-07-20T12:26:21;3.83;;;0.57;;
17935;SDS011;9093;52.062;4.508;2023-07-20T12:29:04;0.68;;;0.47;;
17935;SDS011;9093;52.062;4.508;2023-07-20T12:31:44;0.63;;;0.50;;
17935;SDS011;9093;52.062;4.508;2023-07-20T12:34:25;1.00;;;0.50;;
17935;SDS011;9093;52.062;4.508;2023-07-20T12:37:06;3.43;;;0.60;;
17935;SDS011;9093;52.062;4.508;2023-07-20T12:39:47;1.50;;;0.68;;
17935;SDS011;9093;52.062;4.508;2023-07-20T12:42:27;0.90;;;0.50;;
17935;SDS011;9093;52.062;4.508;2023-07-20T12:45:08;0.98;;;0.55;;
17935;SDS011;9093;52.062;4.508;2023-07-20T12:47:48;1.20;;;0.65;;
17935;SDS011;9093;52.062;4.508;2023-07-20T12:50:29;0.90;;;0.40;;
17935;SDS011;9093;52.062;4.508;2023-07-20T12:53:09;0.65;;;0.47;;
17935;SDS011;9093;52.062;4.508;2023-07-20T12:55:50;1.10;;;0.57;;
17935;SDS011;9093;52.062;4.508;2023-07-20T12:58:30;2.27;;;0.50;;
17935;SDS011;9093;52.062;4.508;2023-07-20T13:01:11;0.63;;;0.50;;
17935;SDS011;9093;52.062;4.508;2023-07-20T13:03:51;0.83;;;0.50;;
17935;SDS011;9093;52.062;4.508;2023-07-20T13:06:31;0.52;;;0.50;;
17935;SDS011;9093;52.062;4.508;2023-07-20T13:09:11;3.85;;;0.60;;
17935;SDS011;9093;52.062;4.508;2023-07-20T13:11:52;0.85;;;0.40;;
17935;SDS011;9093;52.062;4.508;2023-07-20T13:14:32;1.15;;;0.50;;
17935;SDS011;9093;52.062;4.508;2023-07-20T13:17:13;0.83;;;0.40;;
17935;SDS011;9093;52.062;4.508;2023-07-20T13:19:54;0.60;;;0.40;;
17935;SDS011;9093;52.062;4.508;2023-07-20T13:22:34;3.78;;;0.47;;
17935;SDS011;9093;52.062;4.508;2023-07-20T13:25:15;0.70;;;0.45;;
17935;SDS011;9093;52.062;4.508;2023-07-20T13:27:55;0.98;;;0.40;;
17935;SDS011;9093;52.062;4.508;2023-07-20T13:30:36;0.60;;;0.40;;
17935;SDS011;9093;52.062;4.508;2023-07-20T13:33:16;0.68;;;0.40;;
17935;SDS011;9093;52.062;4.508;2023-07-20T13:35:56;0.80;;;0.47;;
17935;SDS011;9093;52.062;4.508;2023-07-20T13:38:37;0.82;;;0.50;;
17935;SDS011;9093;52.062;4.508;2023-07-20T13:41:17;0.40;;;0.30;;
17935;SDS011;9093;52.062;4.508;2023-07-20T13:43:57;0.40;;;0.30;;
17935;SDS011;9093;52.062;4.508;2023-07-20T13:46:38;1.30;;;0.47;;
17935;SDS011;9093;52.062;4.508;2023-07-20T13:49:19;3.50;;;0.70;;
17935;SDS011;9093;52.062;4.508;2023-07-20T13:52:00;0.50;;;0.30;;
17935;SDS011;9093;52.062;4.508;2023-07-20T13:54:40;0.50;;;0.35;;
17935;SDS011;9093;52.062;4.508;2023-07-20T13:57:20;0.40;;;0.20;;
17935;SDS011;9093;52.062;4.508;2023-07-20T14:00:01;0.50;;;0.40;;
17935;SDS011;9093;52.062;4.508;2023-07-20T14:02:44;1.10;;;0.40;;
17935;SDS011;9093;52.062;4.508;2023-07-20T14:05:24;0.67;;;0.30;;
17935;SDS011;9093;52.062;4.508;2023-07-20T14:08:05;0.85;;;0.50;;
17935;SDS011;9093;52.062;4.508;2023-07-20T14:10:46;0.93;;;0.43;;
17935;SDS011;9093;52.062;4.508;2023-07-20T14:13:26;0.65;;;0.35;;
17935;SDS011;9093;52.062;4.508;2023-07-20T14:16:06;0.82;;;0.32;;
17935;SDS011;9093;52.062;4.508;2023-07-20T14:18:48;0.40;;;0.20;;
17935;SDS011;9093;52.062;4.508;2023-07-20T14:21:29;1.75;;;0.38;;
17935;SDS011;9093;52.062;4.508;2023-07-20T14:24:12;0.65;;;0.38;;
17935;SDS011;9093;52.062;4.508;2023-07-20T14:26:52;1.75;;;0.60;;
17935;SDS011;9093;52.062;4.508;2023-07-20T14:29:34;0.60;;;0.35;;
17935;SDS011;9093;52.062;4.508;2023-07-20T14:32:16;0.98;;;0.50;;
17935;SDS011;9093;52.062;4.508;2023-07-20T14:34:56;0.50;;;0.30;;
17935;SDS011;9093;52.062;4.508;2023-07-20T14:37:37;0.80;;;0.40;;
17935;SDS011;9093;52.062;4.508;2023-07-20T14:40:17;0.70;;;0.52;;
17935;SDS011;9093;52.062;4.508;2023-07-20T14:42:58;1.17;;;0.52;;
17935;SDS011;9093;52.062;4.508;2023-07-20T14:45:41;0.70;;;0.45;;
17935;SDS011;9093;52.062;4.508;2023-07-20T14:48:21;1.10;;;0.40;;
17935;SDS011;9093;52.062;4.508;2023-07-20T14:51:02;1.25;;;0.50;;
17935;SDS011;9093;52.062;4.508;2023-07-20T14:53:42;0.57;;;0.38;;
17935;SDS011;9093;52.062;4.508;2023-07-20T14:56:22;0.50;;;0.30;;
17935;SDS011;9093;52.062;4.508;2023-07-20T14:59:03;0.60;;;0.40;;
17935;SDS011;9093;52.062;4.508;2023-07-20T15:01:44;0.70;;;0.40;;
17935;SDS011;9093;52.062;4.508;2023-07-20T15:04:28;1.02;;;0.40;;
17935;SDS011;9093;52.062;4.508;2023-07-20T15:07:08;1.25;;;0.47;;
17935;SDS011;9093;52.062;4.508;2023-07-20T15:09:48;3.13;;;0.50;;
17935;SDS011;9093;52.062;4.508;2023-07-20T15:12:29;0.40;;;0.28;;
17935;SDS011;9093;52.062;4.508;2023-07-20T15:15:10;0.70;;;0.40;;
17935;SDS011;9093;52.062;4.508;2023-07-20T15:17:52;10.38;;;0.52;;
17935;SDS011;9093;52.062;4.508;2023-07-20T15:20:34;0.90;;;0.57;;
17935;SDS011;9093;52.062;4.508;2023-07-20T15:23:14;0.40;;;0.22;;
17935;SDS011;9093;52.062;4.508;2023-07-20T15:25:54;0.80;;;0.50;;
17935;SDS011;9093;52.062;4.508;2023-07-20T15:28:35;0.80;;;0.45;;
17935;SDS011;9093;52.062;4.508;2023-07-20T15:31:15;1.63;;;0.85;;
17935;SDS011;9093;52.062;4.508;2023-07-20T15:33:55;1.20;;;0.55;;
17935;SDS011;9093;52.062;4.508;2023-07-20T15:36:36;4.72;;;0.50;;
17935;SDS011;9093;52.062;4.508;2023-07-20T15:39:16;3.22;;;0.40;;
17935;SDS011;9093;52.062;4.508;2023-07-20T15:41:56;0.40;;;0.30;;
17935;SDS011;9093;52.062;4.508;2023-07-20T15:44:37;0.57;;;0.40;;
17935;SDS011;9093;52.062;4.508;2023-07-20T15:47:17;0.80;;;0.43;;
17935;SDS011;9093;52.062;4.508;2023-07-20T15:49:58;0.60;;;0.40;;
17935;SDS011;9093;52.062;4.508;2023-07-20T15:52:38;0.70;;;0.37;;
17935;SDS011;9093;52.062;4.508;2023-07-20T15:55:19;0.80;;;0.40;;
17935;SDS011;9093;52.062;4.508;2023-07-20T15:58:00;0.60;;;0.30;;
17935;SDS011;9093;52.062;4.508;2023-07-20T16:00:40;0.40;;;0.30;;
17935;SDS011;9093;52.062;4.508;2023-07-20T16:03:20;0.50;;;0.30;;
17935;SDS011;9093;52.062;4.508;2023-07-20T16:06:01;5.90;;;2.05;;
17935;SDS011;9093;52.062;4.508;2023-07-20T16:08:43;1.30;;;0.70;;
17935;SDS011;9093;52.062;4.508;2023-07-20T16:11:24;3.97;;;0.60;;
17935;SDS011;9093;52.062;4.508;2023-07-20T16:14:05;0.60;;;0.40;;
17935;SDS011;9093;52.062;4.508;2023-07-20T16:16:46;0.50;;;0.40;;
17935;SDS011;9093;52.062;4.508;2023-07-20T16:19:26;0.60;;;0.30;;
17935;SDS011;9093;52.062;4.508;2023-07-20T16:22:07;1.13;;;0.47;;
17935;SDS011;9093;52.062;4.508;2023-07-20T16:24:48;0.50;;;0.30;;
17935;SDS011;9093;52.062;4.508;2023-07-20T16:27:29;0.93;;;0.50;;
17935;SDS011;9093;52.062;4.508;2023-07-20T16:30:10;0.87;;;0.40;;
17935;SDS011;9093;52.062;4.508;2023-07-20T16:32:51;0.80;;;0.40;;
17935;SDS011;9093;52.062;4.508;2023-07-20T16:35:38;0.47;;;0.33;;
17935;SDS011;9093;52.062;4.508;2023-07-20T16:38:19;0.65;;;0.40;;
17935;SDS011;9093;52.062;4.508;2023-07-20T16:40:59;0.50;;;0.38;;
17935;SDS011;9093;52.062;4.508;2023-07-20T16:43:39;2.25;;;0.45;;